MiSS Kelly — WDF2315 — position and weather

sailwx.info

Track history (hours):
 
Tides and Currents Weather Stations Pressure Air Temp Water Temp Dewpoint Dewpoint Depression Visibility Wind Speed Wind Dir Waves Ship Positions

MiSS Kelly

Owner: Florida Marine Transporters, Inc., Mandeville, LA. More information available from US FCC via Universal Licensing System and Coast Guard Vessel Documentation Center.

Last reported at 2018-Jan-18 19:34 UTC. Time now 2018-Jan-19 07:23 UTC.
Position N 30°04' W 093°41'.

Length 27 m.

Type: Towing. MMSI: 367427270.

Date/timePositionNaut miles runAvg speedWind from/ knotsBaromVisibWave heightAir tempDewpointWater temp
2018-Jan-18 19:34N 30°04' W 093°41'0 5.8
2018-Jan-18 19:30N 30°04' W 093°40'3 5.7
2018-Jan-18 19:00N 30°04' W 093°37'3 5.0
2018-Jan-18 18:30N 30°04' W 093°34'2 4.7
2018-Jan-18 18:00N 30°04' W 093°31'2 5.0
2018-Jan-18 17:30N 30°04' W 093°29'2 5.0
2018-Jan-18 17:00N 30°04' W 093°26'2 4.5
2018-Jan-18 16:30N 30°04' W 093°23'2 3.7
2018-Jan-18 16:00N 30°04' W 093°21'2 3.7
2018-Jan-18 15:30N 30°05' W 093°20'1 2.7
2018-Jan-18 15:00N 30°06' W 093°18'1 2.2
2018-Jan-18 14:30N 30°05' W 093°17'2 3.9
2018-Jan-18 14:00N 30°04' W 093°16'2 4.1
2018-Jan-18 13:30N 30°02' W 093°15'2 4.1
2018-Jan-18 13:00N 30°00' W 093°14'3 5.2
2018-Jan-18 12:30N 29°58' W 093°12'2 3.5
2018-Jan-18 12:00N 29°57' W 093°10'2 3.9
2018-Jan-18 11:30N 29°56' W 093°08'2 4.7
2018-Jan-18 11:00N 29°56' W 093°06'3 5.1
2018-Jan-18 10:29N 29°56' W 093°03'36 4.2
2018-Jan-18 01:57N 29°51' W 092°22'2 3.7
2018-Jan-18 01:26N 29°50' W 092°20'2 3.7
2018-Jan-18 01:00N 29°50' W 092°18'5 5.0
2018-Jan-18 00:00N 29°47' W 092°13'0 5.1
2018-Jan-17 23:57N 29°47' W 092°13'  
Track history (hours):
 
Tides and Currents Weather Stations Pressure Air Temp Water Temp Dewpoint Dewpoint Depression Visibility Wind Speed Wind Dir Waves Ship Positions

MiSS Kelly

Owner: Florida Marine Transporters, Inc., Mandeville, LA. More information available from US FCC via Universal Licensing System and Coast Guard Vessel Documentation Center.

Last reported at 2018-Jan-18 19:34 UTC. Time now 2018-Jan-19 07:23 UTC.
Position N 30°04' W 093°41'.

Length 27 m.

Type: Towing. MMSI: 367427270.

Date/timePositionNaut miles runAvg speedWind from/ knotsBaromVisibWave heightAir tempDewpointWater temp
2018-Jan-18 19:34N 30°04' W 093°41'0 5.8
2018-Jan-18 19:30N 30°04' W 093°40'3 5.7
2018-Jan-18 19:00N 30°04' W 093°37'3 5.0
2018-Jan-18 18:30N 30°04' W 093°34'2 4.7
2018-Jan-18 18:00N 30°04' W 093°31'2 5.0
2018-Jan-18 17:30N 30°04' W 093°29'2 5.0
2018-Jan-18 17:00N 30°04' W 093°26'2 4.5
2018-Jan-18 16:30N 30°04' W 093°23'2 3.7
2018-Jan-18 16:00N 30°04' W 093°21'2 3.7
2018-Jan-18 15:30N 30°05' W 093°20'1 2.7
2018-Jan-18 15:00N 30°06' W 093°18'1 2.2
2018-Jan-18 14:30N 30°05' W 093°17'2 3.9
2018-Jan-18 14:00N 30°04' W 093°16'2 4.1
2018-Jan-18 13:30N 30°02' W 093°15'2 4.1
2018-Jan-18 13:00N 30°00' W 093°14'3 5.2
2018-Jan-18 12:30N 29°58' W 093°12'2 3.5
2018-Jan-18 12:00N 29°57' W 093°10'2 3.9
2018-Jan-18 11:30N 29°56' W 093°08'2 4.7
2018-Jan-18 11:00N 29°56' W 093°06'3 5.1
2018-Jan-18 10:29N 29°56' W 093°03'36 4.2
2018-Jan-18 01:57N 29°51' W 092°22'2 3.7
2018-Jan-18 01:26N 29°50' W 092°20'2 3.7
2018-Jan-18 01:00N 29°50' W 092°18'5 5.0
2018-Jan-18 00:00N 29°47' W 092°13'0 5.1
2018-Jan-17 23:57N 29°47' W 092°13'  

Dump ship's entire track history